createdAt,value
2018-04-09T00:02:01.642Z,21.10
2018-04-09T00:04:04.567Z,22.00
2018-04-09T00:06:07.780Z,20.13
2018-04-09T00:08:10.573Z,21.93
2018-04-09T00:10:13.435Z,21.07
2018-04-09T00:12:16.323Z,20.83
2018-04-09T00:14:19.207Z,20.10
2018-04-09T00:16:22.644Z,21.57
2018-04-09T00:18:25.761Z,23.10
2018-04-09T00:20:28.587Z,21.93
2018-04-09T00:22:31.394Z,21.17
2018-04-09T00:24:34.273Z,20.37
2018-04-09T00:26:37.045Z,21.27
2018-04-09T00:28:39.827Z,22.10
2018-04-09T00:30:42.670Z,22.30
2018-04-09T00:32:45.505Z,23.57
2018-04-09T00:34:48.521Z,21.60
2018-04-09T00:36:51.367Z,22.57
2018-04-09T00:38:54.231Z,21.73
2018-04-09T00:40:57.372Z,22.20
2018-04-09T00:43:00.125Z,21.83
2018-04-09T00:45:02.964Z,22.83
2018-04-09T00:47:05.776Z,22.30
2018-04-09T00:49:09.430Z,22.23
2018-04-09T00:51:12.287Z,23.67
2018-04-09T00:53:15.311Z,22.83
2018-04-09T00:55:18.178Z,21.53
2018-04-09T00:57:20.984Z,22.87
2018-04-09T00:59:23.764Z,22.13
2018-04-09T01:01:26.557Z,22.50
2018-04-09T01:03:29.547Z,23.10
2018-04-09T01:05:32.415Z,22.63
2018-04-09T01:07:35.952Z,22.17
2018-04-09T01:09:38.853Z,22.80
2018-04-09T01:11:41.708Z,23.20
2018-04-09T01:13:44.543Z,22.70
2018-04-09T01:15:47.406Z,23.03
2018-04-09T01:17:50.141Z,22.10
2018-04-09T01:19:52.887Z,21.77
2018-04-09T01:21:55.769Z,22.77
2018-04-09T01:23:58.518Z,22.37
2018-04-09T01:26:01.268Z,24.60
2018-04-09T01:28:04.013Z,22.93
2018-04-09T01:30:06.809Z,23.10
2018-04-09T01:32:09.557Z,21.77
2018-04-09T01:34:12.324Z,23.77
2018-04-09T01:36:15.063Z,22.50
2018-04-09T01:38:17.815Z,23.70
2018-04-09T01:40:20.824Z,24.93
2018-04-09T01:42:23.601Z,24.23
2018-04-09T01:44:26.347Z,23.67
2018-04-09T01:46:29.089Z,24.97
2018-04-09T01:48:31.861Z,24.97
2018-04-09T01:50:34.826Z,24.20
2018-04-09T01:52:37.899Z,24.63
2018-04-09T01:54:41.470Z,24.30
2018-04-09T01:56:44.358Z,25.40
2018-04-09T01:58:47.412Z,24.77
2018-04-09T02:00:50.227Z,25.60
2018-04-09T02:02:53.027Z,25.60
2018-04-09T02:04:55.823Z,26.37
2018-04-09T02:06:58.757Z,25.63
2018-04-09T02:09:01.570Z,26.07
2018-04-09T02:11:04.613Z,25.03
2018-04-09T02:13:08.062Z,24.63
2018-04-09T02:15:10.900Z,23.90
2018-04-09T02:17:13.956Z,25.70
2018-04-09T02:19:16.788Z,26.43
2018-04-09T02:21:19.672Z,26.20
2018-04-09T02:23:22.547Z,26.50
2018-04-09T02:25:25.427Z,24.40
2018-04-09T02:27:28.243Z,26.43
2018-04-09T02:29:33.063Z,28.20
2018-04-09T02:31:36.692Z,27.00
2018-04-09T02:33:39.602Z,26.67
2018-04-09T02:35:43.792Z,26.50
2018-04-09T02:37:46.696Z,28.03
2018-04-09T02:39:49.735Z,28.10
2018-04-09T02:41:52.529Z,28.30
2018-04-09T02:43:55.286Z,26.30
2018-04-09T02:45:58.132Z,26.50
2018-04-09T02:48:01.240Z,25.50
2018-04-09T02:50:04.153Z,26.40
2018-04-09T02:52:07.053Z,26.07
2018-04-09T02:54:09.935Z,27.30
2018-04-09T02:56:12.801Z,26.30
2018-04-09T02:58:16.024Z,27.27
2018-04-09T03:00:18.912Z,26.40
2018-04-09T03:02:21.831Z,27.37
2018-04-09T03:04:24.749Z,27.83
2018-04-09T03:06:27.584Z,27.03
2018-04-09T03:08:30.409Z,27.40
2018-04-09T03:10:33.229Z,27.43
2018-04-09T03:12:36.024Z,27.67
2018-04-09T03:14:38.775Z,26.60
2018-04-09T03:16:41.571Z,28.93
2018-04-09T03:18:44.345Z,27.67
2018-04-09T03:20:47.246Z,26.13
2018-04-09T03:22:50.030Z,27.47
2018-04-09T03:24:52.782Z,27.77
2018-04-09T03:26:55.556Z,27.00
2018-04-09T03:28:58.313Z,26.07
2018-04-09T03:31:01.040Z,27.23
2018-04-09T03:33:03.799Z,26.83
2018-04-09T03:35:06.564Z,26.63
2018-04-09T03:37:09.292Z,26.27
2018-04-09T03:39:12.091Z,28.33
2018-04-09T03:41:14.875Z,28.57
2018-04-09T03:43:17.629Z,27.17
2018-04-09T03:45:20.368Z,27.53
2018-04-09T03:47:23.089Z,27.90
2018-04-09T03:49:25.853Z,28.10
2018-04-09T03:51:28.659Z,29.07
2018-04-09T03:53:31.491Z,26.20
2018-04-09T03:55:34.274Z,26.80
2018-04-09T03:57:37.061Z,26.30
2018-04-09T03:59:39.818Z,27.07
2018-04-09T04:01:42.668Z,28.00
2018-04-09T04:03:45.596Z,26.63
2018-04-09T04:05:48.397Z,27.47
2018-04-09T04:07:51.293Z,29.30
2018-04-09T04:09:54.043Z,27.20
2018-04-09T04:11:56.823Z,27.77
2018-04-09T04:13:59.684Z,27.77
2018-04-09T04:16:08.605Z,29.53
2018-04-09T04:31:29.956Z,27.00
2018-04-09T04:33:32.802Z,27.70
2018-04-09T04:35:35.679Z,29.40
2018-04-09T04:37:38.525Z,29.23
2018-04-09T04:39:41.392Z,29.50
2018-04-09T04:41:44.158Z,29.23
2018-04-09T04:43:46.962Z,28.47
2018-04-09T04:45:49.819Z,28.90
2018-04-09T04:47:52.599Z,29.50
2018-04-09T04:49:55.362Z,29.17
2018-04-09T04:51:58.140Z,29.57
2018-04-09T04:54:01.001Z,29.80
2018-04-09T04:56:03.873Z,30.10
2018-04-09T04:58:06.653Z,29.43
2018-04-09T05:00:09.503Z,28.10
2018-04-09T05:02:12.292Z,30.13
2018-04-09T05:04:15.110Z,28.83
2018-04-09T05:06:17.943Z,27.50
2018-04-09T05:08:20.755Z,29.13
2018-04-09T05:10:23.607Z,28.90
2018-04-09T05:12:26.441Z,27.67
2018-04-09T05:14:29.267Z,31.07
2018-04-09T05:16:32.114Z,28.83
2018-04-09T05:18:35.008Z,29.00
2018-04-09T05:20:37.902Z,29.23
2018-04-09T05:22:40.733Z,29.90
2018-04-09T05:24:43.645Z,30.10
2018-04-09T05:26:46.563Z,30.87
2018-04-09T05:28:50.139Z,29.87
2018-04-09T05:30:52.947Z,29.20
2018-04-09T05:32:55.751Z,29.90
2018-04-09T05:34:58.536Z,28.97
2018-04-09T05:37:01.303Z,29.67
2018-04-09T05:39:04.076Z,31.47
2018-04-09T05:41:06.976Z,29.10
2018-04-09T05:43:09.762Z,29.37
2018-04-09T05:45:12.608Z,29.20
2018-04-09T05:47:15.445Z,29.70
2018-04-09T05:49:18.307Z,30.57
2018-04-09T05:51:21.306Z,31.60
2018-04-09T05:53:24.102Z,30.40
2018-04-09T05:55:26.875Z,28.90
2018-04-09T05:57:29.822Z,29.33
2018-04-09T05:59:32.631Z,29.07
2018-04-09T06:01:35.434Z,29.87
2018-04-09T06:03:39.100Z,31.00
2018-04-09T06:05:41.908Z,30.77
2018-04-09T06:07:44.769Z,31.97
2018-04-09T06:09:47.568Z,30.80
2018-04-09T06:11:50.356Z,30.13
2018-04-09T06:13:53.368Z,31.93
2018-04-09T06:15:56.200Z,31.93
2018-04-09T06:17:59.004Z,30.53
2018-04-09T06:20:01.849Z,31.30
2018-04-09T06:22:05.912Z,30.77
2018-04-09T06:24:13.473Z,30.23
2018-04-09T06:26:18.962Z,30.97
2018-04-09T06:28:21.859Z,31.53
2018-04-09T06:30:28.616Z,29.57
2018-04-09T06:32:33.075Z,31.30
2018-04-09T06:37:00.148Z,32.13
2018-04-09T06:39:10.252Z,32.57
2018-04-09T06:41:34.839Z,31.93
2018-04-09T06:43:51.564Z,33.53
2018-04-09T06:45:55.165Z,31.90
2018-04-09T06:47:58.451Z,32.10
2018-04-09T06:50:08.227Z,31.50
2018-04-09T06:59:08.863Z,33.57
2018-04-09T07:06:33.795Z,31.47
2018-04-09T07:08:38.820Z,33.50
2018-04-09T07:10:41.748Z,31.40
2018-04-09T07:12:46.828Z,34.33
2018-04-09T07:14:52.291Z,32.27
2018-04-09T07:16:58.459Z,31.43
2018-04-09T07:21:31.534Z,30.70
2018-04-09T07:26:13.055Z,33.50
2018-04-09T07:28:18.397Z,31.63
2018-04-09T07:30:21.256Z,31.13
2018-04-09T07:32:29.929Z,30.73
2018-04-09T07:34:43.999Z,32.50
2018-04-09T07:36:54.720Z,31.63
2018-04-09T07:39:01.696Z,31.40
2018-04-09T07:41:07.507Z,32.10
2018-04-09T07:43:27.135Z,30.43
2018-04-09T07:45:39.583Z,30.33
2018-04-09T07:47:43.369Z,71.07
2018-04-09T07:49:59.721Z,64.80
2018-04-09T07:52:08.960Z,34.90
2018-04-09T07:54:20.923Z,32.37
2018-04-09T07:56:25.011Z,31.73
2018-04-09T07:58:29.331Z,29.40
2018-04-09T08:00:54.128Z,32.30
2018-04-09T08:05:25.780Z,32.13
2018-04-09T08:09:51.352Z,30.50
2018-04-09T08:11:54.252Z,32.60
2018-04-09T08:14:02.971Z,30.17
2018-04-09T08:16:07.848Z,30.40
2018-04-09T08:30:05.681Z,31.20
2018-04-09T08:32:11.171Z,31.03
2018-04-09T08:34:26.622Z,30.67
2018-04-09T08:42:03.308Z,30.43
2018-04-09T08:49:33.289Z,31.30
2018-04-09T08:59:26.374Z,30.87
2018-04-09T09:03:50.184Z,30.40
2018-04-09T10:37:22.904Z,27.30
2018-04-09T10:39:36.808Z,28.47
2018-04-09T10:44:03.884Z,30.30
2018-04-09T10:56:39.314Z,29.03
2018-04-09T11:15:36.488Z,32.90
2018-04-09T11:20:05.261Z,31.03
2018-04-09T11:22:15.748Z,47.07
2018-04-09T11:24:21.610Z,55.57
2018-04-09T15:40:20.213Z,40.53
2018-04-09T15:45:11.492Z,39.87
2018-04-09T15:47:19.895Z,41.20
2018-04-09T15:49:35.843Z,41.03
2018-04-09T15:51:38.770Z,42.00
2018-04-09T15:53:47.912Z,41.00
2018-04-09T15:58:12.387Z,39.57
2018-04-09T16:05:07.996Z,41.33
2018-04-09T16:16:24.496Z,45.00
2018-04-09T16:18:39.230Z,45.27
2018-04-09T16:23:22.011Z,43.77
2018-04-09T16:25:45.686Z,44.37
2018-04-09T16:28:03.991Z,44.10
2018-04-09T16:30:07.469Z,40.33
2018-04-09T16:32:10.209Z,46.33
2018-04-09T16:34:12.942Z,43.63
2018-04-09T16:36:15.649Z,45.43
2018-04-09T16:38:18.452Z,45.37
2018-04-09T16:40:21.162Z,43.23
2018-04-09T16:42:23.909Z,44.37
2018-04-09T16:44:26.615Z,47.93
2018-04-09T16:46:29.330Z,45.70
2018-04-09T16:48:32.067Z,44.30
2018-04-09T16:50:34.842Z,43.43
2018-04-09T16:52:37.730Z,44.87
2018-04-09T22:34:42.226Z,69.83
2018-04-09T22:38:53.284Z,50.10
2018-04-09T22:40:56.313Z,51.47
2018-04-09T22:43:00.893Z,52.03
2018-04-09T22:45:10.737Z,51.10
2018-04-09T22:47:18.382Z,50.30
2018-04-09T22:51:40.969Z,51.37
2018-04-09T22:53:43.921Z,51.43
2018-04-09T22:55:49.570Z,52.60
2018-04-09T22:57:52.481Z,50.60
2018-04-09T22:59:55.352Z,51.43
2018-04-09T23:01:58.257Z,48.33
2018-04-09T23:04:01.983Z,52.23
2018-04-09T23:06:06.417Z,50.87
2018-04-09T23:08:15.361Z,51.77
2018-04-09T23:10:19.774Z,50.07
2018-04-09T23:12:28.109Z,52.70
2018-04-09T23:14:31.662Z,51.77
2018-04-09T23:16:35.990Z,52.67
2018-04-09T23:18:40.280Z,53.30
2018-04-09T23:20:44.500Z,52.17
2018-04-09T23:22:49.385Z,53.20
2018-04-09T23:27:02.751Z,53.53
2018-04-09T23:29:06.404Z,51.40
2018-04-09T23:31:09.498Z,52.97
2018-04-09T23:33:15.058Z,53.80
2018-04-09T23:35:23.998Z,52.43
2018-04-09T23:37:28.403Z,53.80
2018-04-09T23:39:34.932Z,52.47
2018-04-09T23:41:37.804Z,56.23
2018-04-09T23:43:44.002Z,51.23
2018-04-09T23:45:46.815Z,53.50
2018-04-09T23:47:49.573Z,52.83
2018-04-09T23:49:52.330Z,51.77
2018-04-09T23:51:55.086Z,53.30
2018-04-09T23:53:57.861Z,54.00
2018-04-09T23:56:00.624Z,55.03
2018-04-09T23:58:03.422Z,53.77
